Time;durP1;ratioP1;P1;durP2;ratioP2;P2;SDS_P1;SDS_P2;PMS_P1;PMS_P2;Temp;Humidity;BMP_temperature;BMP_pressure;BME280_temperature;BME280_humidity;BME280_pressure;Samples;Min_cycle;Max_cycle;Signal;HPM_P1;HPM_P2
2023/08/06 00:00:48;;;;;;;0.70;0.70;;;;;;;;;;10024497;28;20052;-73
2023/08/06 00:05:43;;;;;;;0.40;0.40;;;;;;;;;;10043449;28;20133;-70
2023/08/06 00:10:35;;;;;;;0.40;0.40;;;;;;;;;;10027416;28;20042;-72
2023/08/06 00:15:27;;;;;;;0.77;0.57;;;;;;;;;;10026153;28;20492;-72
2023/08/06 00:20:19;;;;;;;0.30;0.30;;;;;;;;;;10025487;28;20100;-73
2023/08/06 00:25:10;;;;;;;0.40;0.40;;;;;;;;;;10026883;28;20049;-72
2023/08/06 00:30:02;;;;;;;0.40;0.40;;;;;;;;;;10045926;28;20397;-72
2023/08/06 00:34:54;;;;;;;0.30;0.30;;;;;;;;;;10066051;28;20123;-71
2023/08/06 00:39:46;;;;;;;0.35;0.35;;;;;;;;;;10039539;28;20050;-73
2023/08/06 00:44:38;;;;;;;0.40;0.40;;;;;;;;;;10026667;28;20046;-73
2023/08/06 00:49:32;;;;;;;0.40;0.40;;;;;;;;;;10050094;28;20030;-72
2023/08/06 00:54:26;;;;;;;0.30;0.30;;;;;;;;;;10063184;28;20081;-72
2023/08/06 00:59:20;;;;;;;0.40;0.40;;;;;;;;;;10026439;28;20076;-73
2023/08/06 01:04:12;;;;;;;0.50;0.50;;;;;;;;;;10021533;28;20038;-72
2023/08/06 01:09:32;;;;;;;0.40;0.40;;;;;;;;;;10056456;28;20125;-72
2023/08/06 01:14:33;;;;;;;0.30;0.30;;;;;;;;;;10022636;28;20065;-72
2023/08/06 01:19:25;;;;;;;0.30;0.30;;;;;;;;;;10020907;28;20088;-73
2023/08/06 01:24:16;;;;;;;0.40;0.40;;;;;;;;;;10023390;28;20344;-72
2023/08/06 01:29:16;;;;;;;0.40;0.40;;;;;;;;;;10023711;28;20045;-72
2023/08/06 01:34:16;;;;;;;0.40;0.40;;;;;;;;;;10037761;28;20260;-71
2023/08/06 01:39:08;;;;;;;0.40;0.40;;;;;;;;;;10055923;28;20061;-73
2023/08/06 01:44:00;;;;;;;0.40;0.40;;;;;;;;;;10024584;28;20128;-73
2023/08/06 01:48:51;;;;;;;0.47;0.47;;;;;;;;;;10022925;28;20054;-72
2023/08/06 01:53:43;;;;;;;0.40;0.40;;;;;;;;;;10024434;28;20061;-73
2023/08/06 01:58:36;;;;;;;0.40;0.40;;;;;;;;;;10023121;28;20046;-72
2023/08/06 02:03:27;;;;;;;0.40;0.40;;;;;;;;;;10020431;28;20140;-73
2023/08/06 02:08:19;;;;;;;0.40;0.40;;;;;;;;;;10021982;28;20869;-73
2023/08/06 02:13:11;;;;;;;0.40;0.40;;;;;;;;;;10020946;28;20065;-72
2023/08/06 02:18:03;;;;;;;0.40;0.40;;;;;;;;;;10021603;28;20507;-71
2023/08/06 02:22:55;;;;;;;0.40;0.40;;;;;;;;;;10023689;28;20125;-72
2023/08/06 02:27:47;;;;;;;0.40;0.40;;;;;;;;;;10021860;28;20452;-73
2023/08/06 02:32:39;;;;;;;0.32;0.32;;;;;;;;;;10021321;28;20042;-72
2023/08/06 02:37:34;;;;;;;0.40;0.40;;;;;;;;;;10021617;28;20224;-73
2023/08/06 02:42:26;;;;;;;0.40;0.40;;;;;;;;;;10022051;28;20072;-72
2023/08/06 02:47:18;;;;;;;0.40;0.40;;;;;;;;;;10020675;28;20046;-69
2023/08/06 02:52:10;;;;;;;0.40;0.40;;;;;;;;;;10022804;28;20400;-71
2023/08/06 02:57:02;;;;;;;0.40;0.40;;;;;;;;;;10042963;28;20088;-73
2023/08/06 03:01:57;;;;;;;0.40;0.40;;;;;;;;;;10047877;28;20104;-73
2023/08/06 03:06:58;;;;;;;0.40;0.40;;;;;;;;;;10020414;28;20050;-73
2023/08/06 03:11:58;;;;;;;0.40;0.40;;;;;;;;;;10021434;28;20046;-73
2023/08/06 03:16:50;;;;;;;0.40;0.40;;;;;;;;;;10031867;28;20060;-73
2023/08/06 03:21:44;;;;;;;0.50;0.50;;;;;;;;;;10059508;28;20048;-70
2023/08/06 03:26:37;;;;;;;0.30;0.30;;;;;;;;;;10026961;28;20136;-72
2023/08/06 03:31:29;;;;;;;0.40;0.40;;;;;;;;;;10055574;28;20383;-72
2023/08/06 03:36:23;;;;;;;0.40;0.40;;;;;;;;;;10039123;28;20096;-72
2023/08/06 03:41:16;;;;;;;0.32;0.32;;;;;;;;;;10025444;28;20057;-73
2023/08/06 03:46:09;;;;;;;0.40;0.40;;;;;;;;;;10063279;28;20056;-72
2023/08/06 03:51:02;;;;;;;0.60;0.60;;;;;;;;;;10038279;28;20376;-73
2023/08/06 03:55:55;;;;;;;0.40;0.40;;;;;;;;;;10025688;28;20084;-72
2023/08/06 04:00:47;;;;;;;0.50;0.50;;;;;;;;;;10057306;28;20092;-72
2023/08/06 04:05:39;;;;;;;0.40;0.40;;;;;;;;;;10022231;28;20042;-73
2023/08/06 04:10:31;;;;;;;0.30;0.30;;;;;;;;;;10025763;28;20041;-73
2023/08/06 04:15:25;;;;;;;0.40;0.40;;;;;;;;;;10022077;28;20050;-72
2023/08/06 04:20:17;;;;;;;0.40;0.40;;;;;;;;;;10075679;28;20077;-72
2023/08/06 04:25:09;;;;;;;0.40;0.40;;;;;;;;;;10041990;28;20107;-72
2023/08/06 04:30:01;;;;;;;0.40;0.40;;;;;;;;;;10065938;28;20045;-73
2023/08/06 04:34:56;;;;;;;0.50;0.50;;;;;;;;;;10028733;28;20441;-73
2023/08/06 04:39:49;;;;;;;0.40;0.40;;;;;;;;;;10023506;28;20643;-72
2023/08/06 04:44:42;;;;;;;0.38;0.38;;;;;;;;;;10023046;28;20054;-72
2023/08/06 04:49:34;;;;;;;0.30;0.30;;;;;;;;;;10037361;28;20076;-73
2023/08/06 04:54:26;;;;;;;0.30;0.30;;;;;;;;;;10023084;28;20081;-71
2023/08/06 04:59:18;;;;;;;0.40;0.40;;;;;;;;;;10021101;28;20049;-72
2023/08/06 05:04:10;;;;;;;0.40;0.40;;;;;;;;;;10020832;28;20400;-72
2023/08/06 05:09:02;;;;;;;0.40;0.40;;;;;;;;;;10020997;28;20509;-72
2023/08/06 05:13:54;;;;;;;0.40;0.40;;;;;;;;;;10061733;28;20144;-73
2023/08/06 05:18:46;;;;;;;0.43;0.43;;;;;;;;;;10020476;28;20050;-73
2023/08/06 05:23:38;;;;;;;0.40;0.40;;;;;;;;;;10029488;28;20111;-72
2023/08/06 05:28:30;;;;;;;0.40;0.40;;;;;;;;;;10035848;28;20165;-72
2023/08/06 05:33:21;;;;;;;0.40;0.40;;;;;;;;;;10058509;28;20555;-72
2023/08/06 05:38:13;;;;;;;0.40;0.40;;;;;;;;;;10052262;28;20050;-72
2023/08/06 05:43:05;;;;;;;0.40;0.40;;;;;;;;;;10050492;28;20514;-72
2023/08/06 05:47:58;;;;;;;0.30;0.30;;;;;;;;;;10049932;28;20052;-72
2023/08/06 05:52:50;;;;;;;0.30;0.30;;;;;;;;;;10052093;28;20045;-73
2023/08/06 05:57:42;;;;;;;0.30;0.30;;;;;;;;;;10047364;28;20076;-73
2023/08/06 06:02:34;;;;;;;0.40;0.40;;;;;;;;;;10047492;28;20053;-70
2023/08/06 06:07:26;;;;;;;0.30;0.30;;;;;;;;;;10047854;28;20045;-68
2023/08/06 06:12:18;;;;;;;0.30;0.30;;;;;;;;;;10051809;28;20045;-68
2023/08/06 06:17:09;;;;;;;0.40;0.40;;;;;;;;;;10053457;28;20430;-67
2023/08/06 06:22:01;;;;;;;0.40;0.40;;;;;;;;;;10061016;28;20128;-67
2023/08/06 06:26:53;;;;;;;0.43;0.43;;;;;;;;;;10067894;28;20492;-67
2023/08/06 06:31:45;;;;;;;0.30;0.30;;;;;;;;;;10064708;28;20072;-68
2023/08/06 06:36:37;;;;;;;0.30;0.30;;;;;;;;;;10061428;28;20131;-67
2023/08/06 06:41:31;;;;;;;0.30;0.30;;;;;;;;;;10063007;28;20111;-67
2023/08/06 06:46:29;;;;;;;0.30;0.30;;;;;;;;;;10077941;28;20133;-67
2023/08/06 06:51:21;;;;;;;0.40;0.40;;;;;;;;;;10069057;28;20061;-69
2023/08/06 06:56:13;;;;;;;0.35;0.35;;;;;;;;;;10068241;28;20071;-68
2023/08/06 07:01:05;;;;;;;0.30;0.30;;;;;;;;;;10069269;28;20088;-69
2023/08/06 07:06:00;;;;;;;0.30;0.30;;;;;;;;;;10059201;28;20056;-69
2023/08/06 07:11:03;;;;;;;0.40;0.40;;;;;;;;;;10068599;28;20076;-68
2023/08/06 07:15:56;;;;;;;0.40;0.40;;;;;;;;;;10069752;28;20359;-68
2023/08/06 07:20:51;;;;;;;0.30;0.30;;;;;;;;;;10069169;28;20045;-67
2023/08/06 07:25:43;;;;;;;0.40;0.40;;;;;;;;;;10069131;28;20391;-68
2023/08/06 07:30:38;;;;;;;0.40;0.40;;;;;;;;;;10069534;28;20050;-69
2023/08/06 07:35:30;;;;;;;0.30;0.30;;;;;;;;;;10068072;28;20116;-67
2023/08/06 07:40:22;;;;;;;0.35;0.35;;;;;;;;;;10068101;28;20529;-67
2023/08/06 07:45:14;;;;;;;0.40;0.40;;;;;;;;;;10069023;28;20368;-68
2023/08/06 07:50:07;;;;;;;0.30;0.30;;;;;;;;;;10074435;28;20147;-68
2023/08/06 07:54:59;;;;;;;0.70;0.70;;;;;;;;;;10065784;28;20475;-66
2023/08/06 07:59:53;;;;;;;0.38;0.38;;;;;;;;;;10051584;28;20053;-67
2023/08/06 08:04:47;;;;;;;0.30;0.30;;;;;;;;;;10066559;28;20456;-68
2023/08/06 08:09:39;;;;;;;0.40;0.40;;;;;;;;;;10067085;28;20064;-68
2023/08/06 08:14:35;;;;;;;0.30;0.30;;;;;;;;;;10067905;28;20361;-67
2023/08/06 08:19:28;;;;;;;0.30;0.30;;;;;;;;;;10067642;28;20081;-68
2023/08/06 08:24:23;;;;;;;0.43;0.43;;;;;;;;;;10070853;28;20490;-68
2023/08/06 08:29:15;;;;;;;0.40;0.40;;;;;;;;;;10059180;28;20054;-68
2023/08/06 08:34:07;;;;;;;0.30;0.30;;;;;;;;;;10052005;28;20041;-68
2023/08/06 08:38:59;;;;;;;0.63;0.63;;;;;;;;;;10063489;28;20045;-67
2023/08/06 08:43:51;;;;;;;0.30;0.30;;;;;;;;;;10064674;28;20083;-67
2023/08/06 08:48:43;;;;;;;0.40;0.40;;;;;;;;;;10066281;28;20038;-67
2023/08/06 08:53:39;;;;;;;0.30;0.30;;;;;;;;;;10063097;28;20466;-66
2023/08/06 08:58:32;;;;;;;0.35;0.35;;;;;;;;;;10073830;28;20084;-67
2023/08/06 09:03:25;;;;;;;0.40;0.40;;;;;;;;;;10062467;28;20475;-68
2023/08/06 09:08:19;;;;;;;0.30;0.30;;;;;;;;;;10061223;28;20048;-67
2023/08/06 09:13:12;;;;;;;0.52;0.52;;;;;;;;;;10063574;28;20356;-68
2023/08/06 09:18:11;;;;;;;0.40;0.40;;;;;;;;;;10064458;28;20053;-66
2023/08/06 09:23:10;;;;;;;0.30;0.30;;;;;;;;;;10064303;28;20034;-68
2023/08/06 09:28:02;;;;;;;0.55;0.40;;;;;;;;;;10038118;28;20046;-68
2023/08/06 09:32:54;;;;;;;0.30;0.30;;;;;;;;;;10058487;28;20387;-67
2023/08/06 09:37:46;;;;;;;0.73;0.73;;;;;;;;;;10059389;28;20045;-69
2023/08/06 09:42:43;;;;;;;0.40;0.40;;;;;;;;;;10049750;28;20049;-69
2023/08/06 09:47:36;;;;;;;0.30;0.30;;;;;;;;;;10059989;28;20049;-68
2023/08/06 09:52:28;;;;;;;0.60;0.60;;;;;;;;;;10055564;28;20467;-67
2023/08/06 09:57:20;;;;;;;0.30;0.30;;;;;;;;;;10041229;28;20542;-68
2023/08/06 10:02:13;;;;;;;1.63;1.50;;;;;;;;;;10063556;28;20092;-69
2023/08/06 10:07:05;;;;;;;0.70;0.70;;;;;;;;;;10062109;28;20041;-68
2023/08/06 10:11:58;;;;;;;0.47;0.47;;;;;;;;;;10063331;28;20045;-67
2023/08/06 10:16:50;;;;;;;0.30;0.30;;;;;;;;;;10061430;28;20442;-68
2023/08/06 10:22:11;;;;;;;0.30;0.30;;;;;;;;;;10044341;28;20117;-69
2023/08/06 10:27:03;;;;;;;0.60;0.60;;;;;;;;;;10050501;28;20057;-68
2023/08/06 10:32:00;;;;;;;0.65;0.65;;;;;;;;;;10051780;28;20140;-66
2023/08/06 10:36:54;;;;;;;0.50;0.50;;;;;;;;;;10059597;28;20360;-66
2023/08/06 10:41:46;;;;;;;0.50;0.50;;;;;;;;;;10074170;28;20131;-65
2023/08/06 10:46:38;;;;;;;0.20;0.20;;;;;;;;;;10059518;28;20140;-66
2023/08/06 10:51:30;;;;;;;0.30;0.30;;;;;;;;;;10069787;28;20049;-66
2023/08/06 10:56:25;;;;;;;0.20;0.20;;;;;;;;;;10068621;28;20120;-66
2023/08/06 11:01:17;;;;;;;0.20;0.20;;;;;;;;;;10049229;28;20084;-66
2023/08/06 11:06:10;;;;;;;0.20;0.20;;;;;;;;;;10039873;28;20745;-66
2023/08/06 11:11:13;;;;;;;0.20;0.20;;;;;;;;;;10053874;28;20874;-67
2023/08/06 11:16:05;;;;;;;0.57;0.57;;;;;;;;;;10055101;28;20046;-67
2023/08/06 11:21:01;;;;;;;0.40;0.40;;;;;;;;;;10066667;28;20120;-67
2023/08/06 11:25:53;;;;;;;0.20;0.20;;;;;;;;;;10041119;28;20046;-66
2023/08/06 11:30:45;;;;;;;0.30;0.30;;;;;;;;;;10023083;28;20050;-66
2023/08/06 11:35:38;;;;;;;0.30;0.30;;;;;;;;;;10046470;28;20136;-66
2023/08/06 11:40:31;;;;;;;0.20;0.20;;;;;;;;;;10053175;28;20391;-66
2023/08/06 11:45:24;;;;;;;0.10;0.10;;;;;;;;;;10051317;28;20439;-66
2023/08/06 11:50:26;;;;;;;0.20;0.20;;;;;;;;;;10052546;28;20565;-66
2023/08/06 11:55:19;;;;;;;0.30;0.30;;;;;;;;;;10061807;28;20076;-65
2023/08/06 12:00:12;;;;;;;0.20;0.20;;;;;;;;;;10064529;28;21494;-67
2023/08/06 12:05:20;;;;;;;0.20;0.20;;;;;;;;;;10063943;28;20041;-66
2023/08/06 12:10:13;;;;;;;0.10;0.10;;;;;;;;;;10063675;28;20049;-67
2023/08/06 12:15:06;;;;;;;0.20;0.20;;;;;;;;;;10044330;28;20050;-67
2023/08/06 12:19:58;;;;;;;0.20;0.20;;;;;;;;;;10038053;28;20053;-66
2023/08/06 12:24:50;;;;;;;1.10;0.95;;;;;;;;;;10061232;28;20073;-67
2023/08/06 12:29:47;;;;;;;1.00;0.80;;;;;;;;;;10053448;28;20077;-67
2023/08/06 12:34:40;;;;;;;4.13;1.30;;;;;;;;;;10047710;28;20104;-66
2023/08/06 12:39:44;;;;;;;1.45;1.00;;;;;;;;;;10068892;28;20049;-67
2023/08/06 12:44:36;;;;;;;5.15;1.40;;;;;;;;;;10063194;28;20515;-66
2023/08/06 12:49:28;;;;;;;1.30;1.10;;;;;;;;;;10049342;28;20064;-67
2023/08/06 12:54:21;;;;;;;1.50;1.00;;;;;;;;;;10062675;28;20121;-67
2023/08/06 12:59:16;;;;;;;1.10;0.80;;;;;;;;;;10042094;28;20050;-67
2023/08/06 13:04:09;;;;;;;1.60;1.00;;;;;;;;;;10064415;28;20103;-66
2023/08/06 13:09:13;;;;;;;3.20;1.20;;;;;;;;;;10062574;28;20374;-67
2023/08/06 13:14:09;;;;;;;0.77;0.70;;;;;;;;;;10066513;28;20081;-66
2023/08/06 13:19:01;;;;;;;1.10;0.90;;;;;;;;;;10031456;28;20136;-67
2023/08/06 13:23:53;;;;;;;1.55;1.17;;;;;;;;;;10032490;28;20732;-66
2023/08/06 13:28:45;;;;;;;2.00;1.15;;;;;;;;;;10040277;28;20137;-65
2023/08/06 13:33:37;;;;;;;1.15;0.80;;;;;;;;;;10022648;28;20077;-66
2023/08/06 13:38:29;;;;;;;1.52;1.42;;;;;;;;;;10083491;28;20120;-64
2023/08/06 13:43:20;;;;;;;0.80;0.80;;;;;;;;;;10047362;28;20464;-67
2023/08/06 13:48:12;;;;;;;1.42;1.05;;;;;;;;;;10048107;28;20095;-66
2023/08/06 13:53:04;;;;;;;1.02;0.93;;;;;;;;;;10060865;28;20100;-66
2023/08/06 13:57:56;;;;;;;1.48;1.20;;;;;;;;;;10061669;28;20047;-68
2023/08/06 14:02:48;;;;;;;0.90;0.90;;;;;;;;;;10048217;28;20045;-66
2023/08/06 14:07:40;;;;;;;1.25;1.10;;;;;;;;;;10040669;28;20038;-66
2023/08/06 14:12:32;;;;;;;0.93;0.80;;;;;;;;;;10058110;28;20816;-66
2023/08/06 14:17:24;;;;;;;2.60;1.27;;;;;;;;;;10062561;28;20042;-67
2023/08/06 14:22:16;;;;;;;1.92;1.08;;;;;;;;;;10048041;28;20044;-66
2023/08/06 14:27:07;;;;;;;0.98;0.85;;;;;;;;;;10040781;28;20150;-67
2023/08/06 14:31:59;;;;;;;0.80;0.80;;;;;;;;;;10042344;28;20045;-67
2023/08/06 14:36:51;;;;;;;1.40;1.05;;;;;;;;;;10070774;28;20088;-66
2023/08/06 14:41:44;;;;;;;1.33;0.73;;;;;;;;;;10049313;28;20427;-66
2023/08/06 14:46:35;;;;;;;5.97;1.70;;;;;;;;;;10024311;28;20145;-66
2023/08/06 14:51:27;;;;;;;1.23;0.93;;;;;;;;;;10048136;28;20045;-66
2023/08/06 14:56:19;;;;;;;3.00;1.17;;;;;;;;;;10057681;28;20045;-67
2023/08/06 15:01:12;;;;;;;3.60;1.02;;;;;;;;;;10058134;28;20057;-68
2023/08/06 15:06:04;;;;;;;0.98;0.73;;;;;;;;;;10061763;28;20045;-65
2023/08/06 15:10:56;;;;;;;1.10;1.00;;;;;;;;;;10062655;28;20049;-66
2023/08/06 15:15:49;;;;;;;0.80;0.80;;;;;;;;;;10081595;28;20077;-66
2023/08/06 15:20:41;;;;;;;1.33;0.90;;;;;;;;;;10063113;28;20383;-67
2023/08/06 15:25:33;;;;;;;1.27;0.80;;;;;;;;;;10069752;28;20045;-67
2023/08/06 15:30:25;;;;;;;1.40;1.00;;;;;;;;;;10067818;28;20061;-65
2023/08/06 15:35:17;;;;;;;5.38;1.35;;;;;;;;;;10066654;28;20087;-66
2023/08/06 15:40:10;;;;;;;2.78;1.08;;;;;;;;;;10069933;28;20136;-65
2023/08/06 15:45:03;;;;;;;1.13;0.90;;;;;;;;;;10067678;28;20472;-65
2023/08/06 15:49:56;;;;;;;3.17;0.90;;;;;;;;;;10066851;28;20714;-66
2023/08/06 15:54:48;;;;;;;0.85;0.60;;;;;;;;;;10036079;28;20046;-66
2023/08/06 15:59:40;;;;;;;33.75;3.33;;;;;;;;;;10061411;28;20052;-67
2023/08/06 16:04:32;;;;;;;0.60;0.60;;;;;;;;;;10067352;28;20478;-65
2023/08/06 16:09:24;;;;;;;3.05;0.88;;;;;;;;;;10066134;28;20095;-65
2023/08/06 16:14:17;;;;;;;1.55;1.00;;;;;;;;;;10067280;28;20044;-66
2023/08/06 16:19:09;;;;;;;2.85;0.80;;;;;;;;;;10066751;28;20049;-66
2023/08/06 16:24:01;;;;;;;0.85;0.70;;;;;;;;;;10048641;28;20124;-66
2023/08/06 16:28:53;;;;;;;0.68;0.65;;;;;;;;;;10043924;28;20776;-66
2023/08/06 16:33:46;;;;;;;2.55;0.80;;;;;;;;;;10048971;28;20124;-67
2023/08/06 16:38:38;;;;;;;1.52;0.80;;;;;;;;;;10057894;28;20048;-64
2023/08/06 16:43:30;;;;;;;0.95;0.85;;;;;;;;;;10047053;28;20069;-66
2023/08/06 16:48:33;;;;;;;0.85;0.70;;;;;;;;;;10041373;28;20052;-65
2023/08/06 16:53:25;;;;;;;1.40;0.95;;;;;;;;;;10049691;28;20072;-65
2023/08/06 16:58:17;;;;;;;1.67;1.00;;;;;;;;;;10065674;28;20045;-65
2023/08/06 17:03:09;;;;;;;2.65;0.80;;;;;;;;;;10066844;28;20132;-66
2023/08/06 17:08:01;;;;;;;1.00;0.90;;;;;;;;;;10067618;28;20428;-67
2023/08/06 17:12:53;;;;;;;1.17;0.90;;;;;;;;;;10065417;28;20419;-66
2023/08/06 17:18:00;;;;;;;2.33;0.90;;;;;;;;;;10066285;28;20046;-66
2023/08/06 17:22:52;;;;;;;2.15;0.70;;;;;;;;;;10065482;28;20658;-66
2023/08/06 17:27:44;;;;;;;1.30;1.05;;;;;;;;;;10045348;28;20450;-65
2023/08/06 17:32:36;;;;;;;0.68;0.68;;;;;;;;;;10064220;28;20049;-63
2023/08/06 17:37:28;;;;;;;2.17;1.08;;;;;;;;;;10062906;28;20045;-65
2023/08/06 17:42:20;;;;;;;4.78;1.02;;;;;;;;;;10065177;28;20072;-66
2023/08/06 17:47:11;;;;;;;1.40;0.80;;;;;;;;;;10059152;28;20046;-66
2023/08/06 17:52:21;;;;;;;4.03;1.40;;;;;;;;;;10057475;28;20080;-66
2023/08/06 17:57:15;;;;;;;2.92;2.10;;;;;;;;;;10063903;28;20079;-66
2023/08/06 18:02:07;;;;;;;1.75;0.98;;;;;;;;;;10063911;28;20037;-66
2023/08/06 18:06:59;;;;;;;2.80;0.90;;;;;;;;;;10064328;28;20041;-66
2023/08/06 18:11:51;;;;;;;0.95;0.77;;;;;;;;;;10064818;28;20112;-66
2023/08/06 18:16:42;;;;;;;1.30;1.08;;;;;;;;;;10065362;28;20038;-65
2023/08/06 18:21:34;;;;;;;1.52;1.13;;;;;;;;;;10038071;28;20054;-66
2023/08/06 18:26:26;;;;;;;1.35;1.25;;;;;;;;;;10022664;28;20072;-66
2023/08/06 18:31:18;;;;;;;1.52;1.17;;;;;;;;;;10058645;28;20049;-66
2023/08/06 18:36:10;;;;;;;1.60;1.10;;;;;;;;;;10061126;28;20041;-66
2023/08/06 18:41:02;;;;;;;1.10;1.00;;;;;;;;;;10059987;28;20049;-66
2023/08/06 18:45:56;;;;;;;1.00;0.90;;;;;;;;;;10063685;28;20053;-67
2023/08/06 18:50:47;;;;;;;1.52;1.30;;;;;;;;;;10068224;28;20394;-67
2023/08/06 18:55:50;;;;;;;1.52;1.08;;;;;;;;;;10066254;28;20068;-65
2023/08/06 19:00:42;;;;;;;1.17;0.82;;;;;;;;;;10067463;28;20095;-67
2023/08/06 19:05:36;;;;;;;1.25;0.80;;;;;;;;;;10064786;28;20046;-65
2023/08/06 19:10:28;;;;;;;1.88;1.10;;;;;;;;;;10070041;28;20075;-65
2023/08/06 19:15:20;;;;;;;2.47;1.17;;;;;;;;;;10047680;28;20480;-66
2023/08/06 19:20:12;;;;;;;3.30;1.63;;;;;;;;;;10039007;28;20046;-67
2023/08/06 19:25:04;;;;;;;1.77;1.40;;;;;;;;;;10058439;28;20651;-65
2023/08/06 19:29:56;;;;;;;2.20;1.38;;;;;;;;;;10065232;28;20048;-64
2023/08/06 19:34:48;;;;;;;2.75;1.30;;;;;;;;;;10069041;28;20057;-65
2023/08/06 19:39:40;;;;;;;2.88;2.35;;;;;;;;;;10053477;28;20136;-64
2023/08/06 19:44:34;;;;;;;2.55;1.60;;;;;;;;;;10054194;28;20038;-65
2023/08/06 19:49:26;;;;;;;3.97;1.55;;;;;;;;;;10063019;28;20128;-65
2023/08/06 19:54:18;;;;;;;7.15;3.33;;;;;;;;;;10043980;28;20058;-67
2023/08/06 20:00:10;;;;;;;3.72;1.60;;;;;;;;;;10234171;27;1295497;-72
2023/08/06 20:05:06;;;;;;;5.97;2.13;;;;;;;;;;10243195;27;20485;-71
2023/08/06 20:09:57;;;;;;;4.25;1.65;;;;;;;;;;10251427;28;20051;-71
2023/08/06 20:14:49;;;;;;;10.18;3.35;;;;;;;;;;10244735;28;20046;-72
2023/08/06 20:19:41;;;;;;;5.57;2.13;;;;;;;;;;10236019;28;20051;-71
2023/08/06 20:24:33;;;;;;;7.13;2.65;;;;;;;;;;10243937;28;20146;-72
2023/08/06 20:29:25;;;;;;;8.05;2.33;;;;;;;;;;10259942;27;20078;-71
2023/08/06 20:34:17;;;;;;;4.25;2.00;;;;;;;;;;10257348;27;20052;-71
2023/08/06 20:39:09;;;;;;;3.78;1.73;;;;;;;;;;10255498;27;20051;-72
2023/08/06 20:44:01;;;;;;;3.78;1.38;;;;;;;;;;10242582;28;20358;-73
2023/08/06 20:48:53;;;;;;;4.55;1.67;;;;;;;;;;10212072;28;20127;-72
2023/08/06 20:53:45;;;;;;;2.08;1.17;;;;;;;;;;10191364;28;20040;-73
2023/08/06 20:58:37;;;;;;;4.78;1.10;;;;;;;;;;10213563;28;20061;-71
2023/08/06 21:03:32;;;;;;;3.75;1.20;;;;;;;;;;10216192;28;20047;-72
2023/08/06 21:08:24;;;;;;;1.98;1.00;;;;;;;;;;10209654;28;20044;-72
2023/08/06 21:13:16;;;;;;;2.85;1.00;;;;;;;;;;10192382;28;20086;-73
2023/08/06 21:18:09;;;;;;;1.25;1.13;;;;;;;;;;10192014;28;20044;-73
2023/08/06 21:23:01;;;;;;;3.08;1.10;;;;;;;;;;10190935;28;20036;-72
2023/08/06 21:27:52;;;;;;;3.50;0.90;;;;;;;;;;10191179;28;20048;-72
2023/08/06 21:32:44;;;;;;;4.82;1.70;;;;;;;;;;10191402;28;20040;-72
2023/08/06 21:37:36;;;;;;;1.55;1.02;;;;;;;;;;10190304;28;20052;-70
2023/08/06 21:42:28;;;;;;;0.85;0.82;;;;;;;;;;10191139;28;20511;-72
2023/08/06 21:47:20;;;;;;;1.92;1.00;;;;;;;;;;10191240;28;20185;-72
2023/08/06 21:52:12;;;;;;;2.22;1.05;;;;;;;;;;10190442;28;20377;-73
2023/08/06 21:57:04;;;;;;;3.33;1.65;;;;;;;;;;10189014;28;20064;-73
2023/08/06 22:01:56;;;;;;;2.30;1.17;;;;;;;;;;10187892;28;20083;-72
2023/08/06 22:06:48;;;;;;;1.25;0.90;;;;;;;;;;10187968;28;20394;-72
2023/08/06 22:11:40;;;;;;;3.55;1.30;;;;;;;;;;10188069;28;20040;-73
2023/08/06 22:16:32;;;;;;;0.70;0.70;;;;;;;;;;10187175;28;20130;-72
2023/08/06 22:21:24;;;;;;;2.85;1.25;;;;;;;;;;10173128;28;20071;-72
2023/08/06 22:26:16;;;;;;;5.60;1.63;;;;;;;;;;10179634;28;20052;-72
2023/08/06 22:31:13;;;;;;;3.10;1.40;;;;;;;;;;10179763;28;20439;-72
2023/08/06 22:36:05;;;;;;;1.80;1.17;;;;;;;;;;10179762;28;20482;-72
2023/08/06 22:40:57;;;;;;;3.10;1.25;;;;;;;;;;10181683;28;20282;-70
2023/08/06 22:45:49;;;;;;;3.50;1.38;;;;;;;;;;10177013;28;20127;-70
2023/08/06 22:50:41;;;;;;;3.28;1.60;;;;;;;;;;10177857;28;20139;-69
2023/08/06 22:55:33;;;;;;;5.18;1.33;;;;;;;;;;10179399;28;20040;-71
2023/08/06 23:00:28;;;;;;;1.42;1.10;;;;;;;;;;10180215;28;20083;-69
2023/08/06 23:05:20;;;;;;;3.72;1.60;;;;;;;;;;10149942;28;20048;-70
2023/08/06 23:10:12;;;;;;;2.47;1.20;;;;;;;;;;10143959;28;20101;-70
2023/08/06 23:15:04;;;;;;;3.65;1.30;;;;;;;;;;10144455;28;20040;-69
2023/08/06 23:19:58;;;;;;;5.07;1.50;;;;;;;;;;10144787;28;20469;-70
2023/08/06 23:24:50;;;;;;;4.75;1.52;;;;;;;;;;10142100;28;20039;-69
2023/08/06 23:29:42;;;;;;;7.20;2.50;;;;;;;;;;10142199;28;20045;-69
2023/08/06 23:34:34;;;;;;;2.95;1.50;;;;;;;;;;10142701;28;20040;-69
2023/08/06 23:39:42;;;;;;;3.92;1.45;;;;;;;;;;10154262;28;20130;-69
2023/08/06 23:44:34;;;;;;;4.47;1.55;;;;;;;;;;10154071;28;20041;-70
2023/08/06 23:49:26;;;;;;;3.30;1.98;;;;;;;;;;10142801;28;20128;-70
2023/08/06 23:54:18;;;;;;;3.85;1.80;;;;;;;;;;10150575;28;20047;-69
2023/08/06 23:59:10;;;;;;;5.55;2.15;;;;;;;;;;10140532;28;20062;-69
